sensor_id;sensor_type;location;lat;lon;timestamp;P1;durP1;ratioP1;P2;durP2;ratioP2
66112;SDS011;52893;52.870;5.822;2022-07-23T00:01:32;7.63;;;4.20;;
66112;SDS011;52893;52.870;5.822;2022-07-23T00:03:59;6.60;;;3.72;;
66112;SDS011;52893;52.870;5.822;2022-07-23T00:06:26;9.05;;;4.32;;
66112;SDS011;52893;52.870;5.822;2022-07-23T00:08:55;7.65;;;4.50;;
66112;SDS011;52893;52.870;5.822;2022-07-23T00:11:22;9.77;;;3.90;;
66112;SDS011;52893;52.870;5.822;2022-07-23T00:13:49;9.13;;;4.43;;
66112;SDS011;52893;52.870;5.822;2022-07-23T00:16:16;7.80;;;4.47;;
66112;SDS011;52893;52.870;5.822;2022-07-23T00:18:43;7.20;;;3.95;;
66112;SDS011;52893;52.870;5.822;2022-07-23T00:21:10;5.65;;;3.70;;
66112;SDS011;52893;52.870;5.822;2022-07-23T00:23:37;7.15;;;3.70;;
66112;SDS011;52893;52.870;5.822;2022-07-23T00:26:06;4.80;;;4.22;;
66112;SDS011;52893;52.870;5.822;2022-07-23T00:28:33;12.43;;;4.53;;
66112;SDS011;52893;52.870;5.822;2022-07-23T00:31:00;7.88;;;5.13;;
66112;SDS011;52893;52.870;5.822;2022-07-23T00:33:27;6.18;;;4.68;;
66112;SDS011;52893;52.870;5.822;2022-07-23T00:35:55;5.80;;;4.35;;
66112;SDS011;52893;52.870;5.822;2022-07-23T00:38:22;8.45;;;4.47;;
66112;SDS011;52893;52.870;5.822;2022-07-23T00:40:49;5.20;;;4.22;;
66112;SDS011;52893;52.870;5.822;2022-07-23T00:43:18;8.52;;;4.10;;
66112;SDS011;52893;52.870;5.822;2022-07-23T00:45:46;6.55;;;4.30;;
66112;SDS011;52893;52.870;5.822;2022-07-23T00:48:13;6.38;;;3.85;;
66112;SDS011;52893;52.870;5.822;2022-07-23T00:50:40;8.23;;;4.13;;
66112;SDS011;52893;52.870;5.822;2022-07-23T00:53:08;7.13;;;4.10;;
66112;SDS011;52893;52.870;5.822;2022-07-23T00:55:37;8.02;;;3.92;;
66112;SDS011;52893;52.870;5.822;2022-07-23T00:58:05;8.02;;;4.53;;
66112;SDS011;52893;52.870;5.822;2022-07-23T01:00:34;8.90;;;3.95;;
66112;SDS011;52893;52.870;5.822;2022-07-23T01:03:01;8.10;;;4.35;;
66112;SDS011;52893;52.870;5.822;2022-07-23T01:05:29;6.63;;;4.00;;
66112;SDS011;52893;52.870;5.822;2022-07-23T01:07:56;6.63;;;3.70;;
66112;SDS011;52893;52.870;5.822;2022-07-23T01:10:23;5.35;;;3.38;;
66112;SDS011;52893;52.870;5.822;2022-07-23T01:13:00;5.13;;;4.00;;
66112;SDS011;52893;52.870;5.822;2022-07-23T01:15:29;6.68;;;3.47;;
66112;SDS011;52893;52.870;5.822;2022-07-23T01:17:58;5.35;;;3.83;;
66112;SDS011;52893;52.870;5.822;2022-07-23T01:20:26;5.05;;;3.70;;
66112;SDS011;52893;52.870;5.822;2022-07-23T01:22:55;4.53;;;3.70;;
66112;SDS011;52893;52.870;5.822;2022-07-23T01:25:23;5.88;;;3.70;;
66112;SDS011;52893;52.870;5.822;2022-07-23T01:27:55;6.97;;;3.67;;
66112;SDS011;52893;52.870;5.822;2022-07-23T01:30:23;8.55;;;4.43;;
66112;SDS011;52893;52.870;5.822;2022-07-23T01:32:50;6.55;;;3.63;;
66112;SDS011;52893;52.870;5.822;2022-07-23T01:35:18;4.78;;;3.67;;
66112;SDS011;52893;52.870;5.822;2022-07-23T01:37:46;6.35;;;3.40;;
66112;SDS011;52893;52.870;5.822;2022-07-23T01:40:15;4.93;;;3.28;;
66112;SDS011;52893;52.870;5.822;2022-07-23T01:42:42;4.82;;;3.10;;
66112;SDS011;52893;52.870;5.822;2022-07-23T01:45:11;7.53;;;3.63;;
66112;SDS011;52893;52.870;5.822;2022-07-23T01:47:43;4.57;;;3.33;;
66112;SDS011;52893;52.870;5.822;2022-07-23T01:50:11;4.03;;;3.42;;
66112;SDS011;52893;52.870;5.822;2022-07-23T01:52:57;5.32;;;3.38;;
66112;SDS011;52893;52.870;5.822;2022-07-23T01:55:26;5.85;;;3.53;;
66112;SDS011;52893;52.870;5.822;2022-07-23T01:57:53;8.20;;;4.10;;
66112;SDS011;52893;52.870;5.822;2022-07-23T02:00:22;6.15;;;4.15;;
66112;SDS011;52893;52.870;5.822;2022-07-23T02:02:51;6.57;;;3.55;;
66112;SDS011;52893;52.870;5.822;2022-07-23T02:05:19;5.68;;;3.13;;
66112;SDS011;52893;52.870;5.822;2022-07-23T02:07:46;9.07;;;4.15;;
66112;SDS011;52893;52.870;5.822;2022-07-23T02:10:13;5.80;;;3.38;;
66112;SDS011;52893;52.870;5.822;2022-07-23T02:12:42;5.88;;;3.53;;
66112;SDS011;52893;52.870;5.822;2022-07-23T02:15:12;6.88;;;3.83;;
66112;SDS011;52893;52.870;5.822;2022-07-23T02:17:39;4.78;;;3.40;;
66112;SDS011;52893;52.870;5.822;2022-07-23T02:20:07;5.13;;;4.03;;
66112;SDS011;52893;52.870;5.822;2022-07-23T02:22:37;4.15;;;3.28;;
66112;SDS011;52893;52.870;5.822;2022-07-23T02:25:05;5.85;;;3.17;;
66112;SDS011;52893;52.870;5.822;2022-07-23T02:27:33;6.47;;;3.30;;
66112;SDS011;52893;52.870;5.822;2022-07-23T02:30:06;7.22;;;3.90;;
66112;SDS011;52893;52.870;5.822;2022-07-23T02:32:34;3.80;;;3.05;;
66112;SDS011;52893;52.870;5.822;2022-07-23T02:35:01;4.18;;;2.75;;
66112;SDS011;52893;52.870;5.822;2022-07-23T02:37:30;3.92;;;2.70;;
66112;SDS011;52893;52.870;5.822;2022-07-23T02:39:58;4.22;;;2.85;;
66112;SDS011;52893;52.870;5.822;2022-07-23T02:42:25;6.43;;;3.72;;
66112;SDS011;52893;52.870;5.822;2022-07-23T02:44:52;5.78;;;3.42;;
66112;SDS011;52893;52.870;5.822;2022-07-23T02:47:21;5.82;;;3.08;;
66112;SDS011;52893;52.870;5.822;2022-07-23T02:49:48;2.25;;;1.58;;
66112;SDS011;52893;52.870;5.822;2022-07-23T02:52:15;5.50;;;2.38;;
66112;SDS011;52893;52.870;5.822;2022-07-23T02:54:43;2.63;;;2.42;;
66112;SDS011;52893;52.870;5.822;2022-07-23T02:57:13;4.32;;;3.33;;
66112;SDS011;52893;52.870;5.822;2022-07-23T02:59:41;4.47;;;3.33;;
66112;SDS011;52893;52.870;5.822;2022-07-23T03:02:09;5.35;;;3.50;;
66112;SDS011;52893;52.870;5.822;2022-07-23T03:04:38;5.97;;;3.70;;
66112;SDS011;52893;52.870;5.822;2022-07-23T03:07:08;4.38;;;3.78;;
66112;SDS011;52893;52.870;5.822;2022-07-23T03:09:35;8.52;;;3.80;;
66112;SDS011;52893;52.870;5.822;2022-07-23T03:12:02;14.13;;;4.60;;
66112;SDS011;52893;52.870;5.822;2022-07-23T03:14:30;8.93;;;3.40;;
66112;SDS011;52893;52.870;5.822;2022-07-23T03:16:58;8.73;;;3.58;;
66112;SDS011;52893;52.870;5.822;2022-07-23T03:19:26;3.65;;;3.28;;
66112;SDS011;52893;52.870;5.822;2022-07-23T03:21:54;4.28;;;3.58;;
66112;SDS011;52893;52.870;5.822;2022-07-23T03:24:21;4.45;;;3.88;;
66112;SDS011;52893;52.870;5.822;2022-07-23T03:26:49;5.97;;;3.78;;
66112;SDS011;52893;52.870;5.822;2022-07-23T03:29:17;9.75;;;3.85;;
66112;SDS011;52893;52.870;5.822;2022-07-23T03:31:44;7.43;;;3.75;;
66112;SDS011;52893;52.870;5.822;2022-07-23T03:34:11;10.45;;;3.80;;
66112;SDS011;52893;52.870;5.822;2022-07-23T03:36:38;6.30;;;3.72;;
66112;SDS011;52893;52.870;5.822;2022-07-23T03:39:07;4.95;;;3.50;;
66112;SDS011;52893;52.870;5.822;2022-07-23T03:41:35;3.50;;;2.70;;
66112;SDS011;52893;52.870;5.822;2022-07-23T03:44:03;3.10;;;1.20;;
66112;SDS011;52893;52.870;5.822;2022-07-23T03:46:30;0.95;;;0.90;;
66112;SDS011;52893;52.870;5.822;2022-07-23T03:48:57;0.77;;;0.55;;
66112;SDS011;52893;52.870;5.822;2022-07-23T03:51:24;0.60;;;0.43;;
66112;SDS011;52893;52.870;5.822;2022-07-23T03:53:51;1.00;;;1.00;;
66112;SDS011;52893;52.870;5.822;2022-07-23T03:56:20;0.70;;;0.70;;
66112;SDS011;52893;52.870;5.822;2022-07-23T03:58:47;1.35;;;0.95;;
66112;SDS011;52893;52.870;5.822;2022-07-23T04:01:14;1.15;;;1.05;;
66112;SDS011;52893;52.870;5.822;2022-07-23T04:03:42;5.22;;;1.75;;
66112;SDS011;52893;52.870;5.822;2022-07-23T04:06:10;1.83;;;1.63;;
66112;SDS011;52893;52.870;5.822;2022-07-23T04:08:38;7.30;;;2.80;;
66112;SDS011;52893;52.870;5.822;2022-07-23T04:11:05;4.55;;;3.30;;
66112;SDS011;52893;52.870;5.822;2022-07-23T04:13:34;5.22;;;3.20;;
66112;SDS011;52893;52.870;5.822;2022-07-23T04:16:03;4.32;;;3.15;;
66112;SDS011;52893;52.870;5.822;2022-07-23T04:18:30;3.00;;;2.53;;
66112;SDS011;52893;52.870;5.822;2022-07-23T04:21:05;4.13;;;2.85;;
66112;SDS011;52893;52.870;5.822;2022-07-23T04:23:34;4.60;;;2.90;;
66112;SDS011;52893;52.870;5.822;2022-07-23T04:26:01;4.10;;;3.10;;
66112;SDS011;52893;52.870;5.822;2022-07-23T04:28:29;6.22;;;2.92;;
66112;SDS011;52893;52.870;5.822;2022-07-23T04:30:59;5.20;;;3.38;;
66112;SDS011;52893;52.870;5.822;2022-07-23T04:33:26;8.38;;;4.18;;
66112;SDS011;52893;52.870;5.822;2022-07-23T04:35:56;5.43;;;3.67;;
66112;SDS011;52893;52.870;5.822;2022-07-23T04:38:23;4.68;;;3.58;;
66112;SDS011;52893;52.870;5.822;2022-07-23T04:40:54;7.30;;;3.47;;
66112;SDS011;52893;52.870;5.822;2022-07-23T04:43:21;11.52;;;3.58;;
66112;SDS011;52893;52.870;5.822;2022-07-23T04:45:50;4.93;;;3.10;;
66112;SDS011;52893;52.870;5.822;2022-07-23T04:48:18;4.35;;;3.00;;
66112;SDS011;52893;52.870;5.822;2022-07-23T04:50:48;6.90;;;3.80;;
66112;SDS011;52893;52.870;5.822;2022-07-23T04:53:22;6.00;;;3.30;;
66112;SDS011;52893;52.870;5.822;2022-07-23T04:55:51;8.45;;;3.83;;
66112;SDS011;52893;52.870;5.822;2022-07-23T04:58:19;7.35;;;3.42;;
66112;SDS011;52893;52.870;5.822;2022-07-23T05:00:47;5.63;;;3.40;;
66112;SDS011;52893;52.870;5.822;2022-07-23T05:03:14;13.27;;;4.28;;
66112;SDS011;52893;52.870;5.822;2022-07-23T05:05:45;10.57;;;4.03;;
66112;SDS011;52893;52.870;5.822;2022-07-23T05:08:16;7.22;;;4.03;;
66112;SDS011;52893;52.870;5.822;2022-07-23T05:10:48;9.50;;;3.63;;
66112;SDS011;52893;52.870;5.822;2022-07-23T05:13:17;8.75;;;4.28;;
66112;SDS011;52893;52.870;5.822;2022-07-23T05:15:44;10.38;;;4.15;;
66112;SDS011;52893;52.870;5.822;2022-07-23T05:18:12;8.80;;;3.55;;
66112;SDS011;52893;52.870;5.822;2022-07-23T05:20:40;4.95;;;3.40;;
66112;SDS011;52893;52.870;5.822;2022-07-23T05:23:09;7.65;;;3.72;;
66112;SDS011;52893;52.870;5.822;2022-07-23T05:25:37;6.15;;;3.55;;
66112;SDS011;52893;52.870;5.822;2022-07-23T05:28:04;6.30;;;3.03;;
66112;SDS011;52893;52.870;5.822;2022-07-23T05:30:31;7.50;;;3.15;;
66112;SDS011;52893;52.870;5.822;2022-07-23T05:33:01;9.02;;;3.30;;
66112;SDS011;52893;52.870;5.822;2022-07-23T05:35:29;4.93;;;3.10;;
66112;SDS011;52893;52.870;5.822;2022-07-23T05:38:17;15.80;;;3.58;;
66112;SDS011;52893;52.870;5.822;2022-07-23T05:40:45;7.68;;;2.70;;
66112;SDS011;52893;52.870;5.822;2022-07-23T05:43:12;4.38;;;2.70;;
66112;SDS011;52893;52.870;5.822;2022-07-23T05:45:39;5.22;;;2.50;;
66112;SDS011;52893;52.870;5.822;2022-07-23T05:48:07;1.52;;;1.20;;
66112;SDS011;52893;52.870;5.822;2022-07-23T05:50:42;2.80;;;1.00;;
66112;SDS011;52893;52.870;5.822;2022-07-23T05:53:23;5.30;;;1.30;;
66112;SDS011;52893;52.870;5.822;2022-07-23T05:55:58;3.83;;;1.10;;
66112;SDS011;52893;52.870;5.822;2022-07-23T05:58:25;2.05;;;1.00;;
66112;SDS011;52893;52.870;5.822;2022-07-23T06:00:53;2.55;;;1.17;;
66112;SDS011;52893;52.870;5.822;2022-07-23T06:03:20;2.13;;;1.10;;
66112;SDS011;52893;52.870;5.822;2022-07-23T06:05:47;2.28;;;0.85;;
66112;SDS011;52893;52.870;5.822;2022-07-23T06:08:14;0.80;;;0.70;;
66112;SDS011;52893;52.870;5.822;2022-07-23T06:10:43;4.78;;;1.10;;
66112;SDS011;52893;52.870;5.822;2022-07-23T06:13:10;2.72;;;0.70;;
66112;SDS011;52893;52.870;5.822;2022-07-23T06:15:37;1.80;;;0.80;;
66112;SDS011;52893;52.870;5.822;2022-07-23T06:18:04;4.18;;;0.75;;
66112;SDS011;52893;52.870;5.822;2022-07-23T06:20:32;3.70;;;0.85;;
66112;SDS011;52893;52.870;5.822;2022-07-23T06:22:59;2.10;;;1.30;;
66112;SDS011;52893;52.870;5.822;2022-07-23T06:25:27;4.15;;;1.02;;
66112;SDS011;52893;52.870;5.822;2022-07-23T06:27:56;2.28;;;0.93;;
66112;SDS011;52893;52.870;5.822;2022-07-23T06:30:26;2.28;;;0.90;;
66112;SDS011;52893;52.870;5.822;2022-07-23T06:32:53;3.00;;;0.95;;
66112;SDS011;52893;52.870;5.822;2022-07-23T06:35:20;5.07;;;0.95;;
66112;SDS011;52893;52.870;5.822;2022-07-23T06:37:47;1.38;;;0.60;;
66112;SDS011;52893;52.870;5.822;2022-07-23T06:40:15;2.50;;;0.40;;
66112;SDS011;52893;52.870;5.822;2022-07-23T06:42:42;2.38;;;0.75;;
66112;SDS011;52893;52.870;5.822;2022-07-23T06:45:17;2.67;;;0.70;;
66112;SDS011;52893;52.870;5.822;2022-07-23T06:47:45;3.60;;;0.50;;
66112;SDS011;52893;52.870;5.822;2022-07-23T06:50:12;0.40;;;0.30;;
66112;SDS011;52893;52.870;5.822;2022-07-23T06:52:41;0.85;;;0.40;;
66112;SDS011;52893;52.870;5.822;2022-07-23T06:55:08;1.10;;;0.40;;
66112;SDS011;52893;52.870;5.822;2022-07-23T06:57:37;1.85;;;0.47;;
66112;SDS011;52893;52.870;5.822;2022-07-23T07:00:06;0.20;;;0.20;;
66112;SDS011;52893;52.870;5.822;2022-07-23T07:02:36;1.88;;;0.43;;
66112;SDS011;52893;52.870;5.822;2022-07-23T07:05:04;0.70;;;0.47;;
66112;SDS011;52893;52.870;5.822;2022-07-23T07:07:32;0.95;;;0.60;;
66112;SDS011;52893;52.870;5.822;2022-07-23T07:09:59;1.30;;;0.80;;
66112;SDS011;52893;52.870;5.822;2022-07-23T07:12:26;1.65;;;0.50;;
66112;SDS011;52893;52.870;5.822;2022-07-23T07:14:53;0.82;;;0.35;;
66112;SDS011;52893;52.870;5.822;2022-07-23T07:17:20;1.55;;;0.57;;
66112;SDS011;52893;52.870;5.822;2022-07-23T07:19:49;1.75;;;0.50;;
66112;SDS011;52893;52.870;5.822;2022-07-23T07:22:16;0.40;;;0.40;;
66112;SDS011;52893;52.870;5.822;2022-07-23T07:24:43;2.35;;;0.60;;
66112;SDS011;52893;52.870;5.822;2022-07-23T07:27:10;2.28;;;0.70;;
66112;SDS011;52893;52.870;5.822;2022-07-23T07:29:38;1.30;;;0.30;;
66112;SDS011;52893;52.870;5.822;2022-07-23T07:32:05;1.50;;;0.88;;
66112;SDS011;52893;52.870;5.822;2022-07-23T07:34:32;1.05;;;0.43;;
66112;SDS011;52893;52.870;5.822;2022-07-23T07:37:00;2.15;;;0.50;;
66112;SDS011;52893;52.870;5.822;2022-07-23T07:39:28;0.40;;;0.40;;
66112;SDS011;52893;52.870;5.822;2022-07-23T07:41:55;3.83;;;0.45;;
66112;SDS011;52893;52.870;5.822;2022-07-23T07:44:22;3.20;;;0.55;;
66112;SDS011;52893;52.870;5.822;2022-07-23T07:46:49;2.75;;;0.57;;
66112;SDS011;52893;52.870;5.822;2022-07-23T07:49:16;0.40;;;0.40;;
66112;SDS011;52893;52.870;5.822;2022-07-23T07:51:45;1.55;;;0.50;;
66112;SDS011;52893;52.870;5.822;2022-07-23T07:54:13;0.73;;;0.30;;
66112;SDS011;52893;52.870;5.822;2022-07-23T07:56:40;1.27;;;0.50;;
66112;SDS011;52893;52.870;5.822;2022-07-23T07:59:08;0.63;;;0.50;;
66112;SDS011;52893;52.870;5.822;2022-07-23T08:01:35;1.02;;;0.50;;
66112;SDS011;52893;52.870;5.822;2022-07-23T08:04:02;0.40;;;0.40;;
66112;SDS011;52893;52.870;5.822;2022-07-23T08:06:29;0.95;;;0.50;;
66112;SDS011;52893;52.870;5.822;2022-07-23T08:08:56;3.20;;;0.70;;
66112;SDS011;52893;52.870;5.822;2022-07-23T08:11:25;2.15;;;0.52;;
66112;SDS011;52893;52.870;5.822;2022-07-23T08:13:52;5.68;;;0.35;;
66112;SDS011;52893;52.870;5.822;2022-07-23T08:16:19;0.60;;;0.50;;
66112;SDS011;52893;52.870;5.822;2022-07-23T08:18:46;2.03;;;0.50;;
66112;SDS011;52893;52.870;5.822;2022-07-23T08:21:13;0.82;;;0.50;;
66112;SDS011;52893;52.870;5.822;2022-07-23T08:23:40;2.00;;;0.50;;
66112;SDS011;52893;52.870;5.822;2022-07-23T08:26:07;1.13;;;0.50;;
66112;SDS011;52893;52.870;5.822;2022-07-23T08:28:36;4.10;;;0.60;;
66112;SDS011;52893;52.870;5.822;2022-07-23T08:31:03;1.85;;;0.57;;
66112;SDS011;52893;52.870;5.822;2022-07-23T08:33:31;0.73;;;0.45;;
66112;SDS011;52893;52.870;5.822;2022-07-23T08:35:58;3.15;;;0.50;;
66112;SDS011;52893;52.870;5.822;2022-07-23T08:38:28;0.88;;;0.50;;
66112;SDS011;52893;52.870;5.822;2022-07-23T08:40:55;1.20;;;0.50;;
66112;SDS011;52893;52.870;5.822;2022-07-23T08:43:24;1.00;;;0.90;;
66112;SDS011;52893;52.870;5.822;2022-07-23T08:45:54;0.52;;;0.50;;
66112;SDS011;52893;52.870;5.822;2022-07-23T08:48:24;3.05;;;0.70;;
66112;SDS011;52893;52.870;5.822;2022-07-23T08:50:53;1.13;;;0.68;;
66112;SDS011;52893;52.870;5.822;2022-07-23T08:53:21;0.93;;;0.55;;
66112;SDS011;52893;52.870;5.822;2022-07-23T08:55:50;1.85;;;0.50;;
66112;SDS011;52893;52.870;5.822;2022-07-23T08:58:19;1.98;;;0.60;;
66112;SDS011;52893;52.870;5.822;2022-07-23T09:00:47;0.40;;;0.40;;
66112;SDS011;52893;52.870;5.822;2022-07-23T09:03:17;0.70;;;0.45;;
66112;SDS011;52893;52.870;5.822;2022-07-23T09:05:46;3.08;;;0.60;;
66112;SDS011;52893;52.870;5.822;2022-07-23T09:08:14;1.85;;;0.50;;
66112;SDS011;52893;52.870;5.822;2022-07-23T09:10:47;1.48;;;0.60;;
66112;SDS011;52893;52.870;5.822;2022-07-23T09:13:27;0.80;;;0.40;;
66112;SDS011;52893;52.870;5.822;2022-07-23T09:15:57;1.00;;;0.60;;
66112;SDS011;52893;52.870;5.822;2022-07-23T09:18:30;1.52;;;0.65;;
66112;SDS011;52893;52.870;5.822;2022-07-23T09:21:05;1.15;;;0.80;;
66112;SDS011;52893;52.870;5.822;2022-07-23T09:23:36;1.23;;;0.80;;
66112;SDS011;52893;52.870;5.822;2022-07-23T09:26:07;0.77;;;0.60;;
66112;SDS011;52893;52.870;5.822;2022-07-23T09:28:49;0.60;;;0.52;;
66112;SDS011;52893;52.870;5.822;2022-07-23T09:31:19;0.93;;;0.50;;
66112;SDS011;52893;52.870;5.822;2022-07-23T09:33:48;2.70;;;0.57;;
66112;SDS011;52893;52.870;5.822;2022-07-23T09:36:15;2.78;;;0.55;;
66112;SDS011;52893;52.870;5.822;2022-07-23T09:38:51;1.23;;;0.70;;
66112;SDS011;52893;52.870;5.822;2022-07-23T09:41:19;0.45;;;0.40;;
66112;SDS011;52893;52.870;5.822;2022-07-23T09:43:46;2.65;;;0.63;;
66112;SDS011;52893;52.870;5.822;2022-07-23T09:46:16;0.82;;;0.63;;
66112;SDS011;52893;52.870;5.822;2022-07-23T09:48:49;0.93;;;0.70;;
66112;SDS011;52893;52.870;5.822;2022-07-23T09:51:18;1.55;;;0.70;;
66112;SDS011;52893;52.870;5.822;2022-07-23T09:53:48;0.52;;;0.45;;
66112;SDS011;52893;52.870;5.822;2022-07-23T09:56:16;1.00;;;0.50;;
66112;SDS011;52893;52.870;5.822;2022-07-23T09:58:44;0.90;;;0.70;;
66112;SDS011;52893;52.870;5.822;2022-07-23T10:01:13;2.85;;;0.80;;
66112;SDS011;52893;52.870;5.822;2022-07-23T10:03:41;0.95;;;0.60;;
66112;SDS011;52893;52.870;5.822;2022-07-23T10:06:29;1.17;;;0.60;;
66112;SDS011;52893;52.870;5.822;2022-07-23T10:09:16;1.67;;;0.60;;
66112;SDS011;52893;52.870;5.822;2022-07-23T10:12:13;4.75;;;0.60;;
66112;SDS011;52893;52.870;5.822;2022-07-23T10:15:02;2.33;;;0.80;;
66112;SDS011;52893;52.870;5.822;2022-07-23T10:17:31;0.70;;;0.65;;
66112;SDS011;52893;52.870;5.822;2022-07-23T10:19:58;0.60;;;0.60;;
66112;SDS011;52893;52.870;5.822;2022-07-23T10:22:27;0.70;;;0.50;;
66112;SDS011;52893;52.870;5.822;2022-07-23T10:25:00;1.08;;;0.60;;
66112;SDS011;52893;52.870;5.822;2022-07-23T10:27:42;0.75;;;0.60;;
66112;SDS011;52893;52.870;5.822;2022-07-23T10:30:17;1.02;;;0.70;;
66112;SDS011;52893;52.870;5.822;2022-07-23T10:32:52;0.70;;;0.70;;
66112;SDS011;52893;52.870;5.822;2022-07-23T10:35:29;1.88;;;0.70;;
66112;SDS011;52893;52.870;5.822;2022-07-23T10:38:07;1.48;;;0.50;;
66112;SDS011;52893;52.870;5.822;2022-07-23T10:40:49;1.00;;;0.77;;
66112;SDS011;52893;52.870;5.822;2022-07-23T10:43:20;1.00;;;0.70;;
66112;SDS011;52893;52.870;5.822;2022-07-23T10:45:47;4.68;;;0.80;;
66112;SDS011;52893;52.870;5.822;2022-07-23T10:48:15;1.10;;;0.68;;
66112;SDS011;52893;52.870;5.822;2022-07-23T10:50:45;1.10;;;0.70;;
66112;SDS011;52893;52.870;5.822;2022-07-23T10:53:56;1.30;;;0.63;;
66112;SDS011;52893;52.870;5.822;2022-07-23T10:59:18;2.65;;;0.98;;
66112;SDS011;52893;52.870;5.822;2022-07-23T11:01:45;1.30;;;0.65;;
66112;SDS011;52893;52.870;5.822;2022-07-23T11:04:13;1.42;;;0.85;;
66112;SDS011;52893;52.870;5.822;2022-07-23T11:09:38;1.15;;;0.70;;
66112;SDS011;52893;52.870;5.822;2022-07-23T11:15:01;2.00;;;0.65;;
66112;SDS011;52893;52.870;5.822;2022-07-23T11:17:31;1.85;;;0.80;;
66112;SDS011;52893;52.870;5.822;2022-07-23T11:20:18;1.27;;;0.93;;
66112;SDS011;52893;52.870;5.822;2022-07-23T11:22:49;1.45;;;0.90;;
66112;SDS011;52893;52.870;5.822;2022-07-23T11:25:28;1.08;;;0.80;;
66112;SDS011;52893;52.870;5.822;2022-07-23T11:28:09;1.83;;;0.80;;
66112;SDS011;52893;52.870;5.822;2022-07-23T11:30:38;1.80;;;0.70;;
66112;SDS011;52893;52.870;5.822;2022-07-23T11:33:20;1.90;;;0.60;;
66112;SDS011;52893;52.870;5.822;2022-07-23T11:38:32;3.05;;;0.82;;
66112;SDS011;52893;52.870;5.822;2022-07-23T11:40:59;0.85;;;0.80;;
66112;SDS011;52893;52.870;5.822;2022-07-23T11:43:26;1.27;;;1.00;;
66112;SDS011;52893;52.870;5.822;2022-07-23T11:45:54;1.60;;;0.90;;
66112;SDS011;52893;52.870;5.822;2022-07-23T11:48:25;0.90;;;0.80;;
66112;SDS011;52893;52.870;5.822;2022-07-23T11:50:54;1.02;;;0.90;;
66112;SDS011;52893;52.870;5.822;2022-07-23T11:53:23;1.60;;;1.15;;
66112;SDS011;52893;52.870;5.822;2022-07-23T11:55:52;1.33;;;0.82;;
66112;SDS011;52893;52.870;5.822;2022-07-23T11:58:20;2.38;;;0.80;;
66112;SDS011;52893;52.870;5.822;2022-07-23T12:00:47;0.70;;;0.70;;
66112;SDS011;52893;52.870;5.822;2022-07-23T12:03:16;1.38;;;0.70;;
66112;SDS011;52893;52.870;5.822;2022-07-23T12:05:43;0.98;;;0.60;;
66112;SDS011;52893;52.870;5.822;2022-07-23T12:08:10;0.60;;;0.60;;
66112;SDS011;52893;52.870;5.822;2022-07-23T12:10:38;1.83;;;0.70;;
66112;SDS011;52893;52.870;5.822;2022-07-23T12:13:10;1.77;;;0.63;;
66112;SDS011;52893;52.870;5.822;2022-07-23T12:15:39;1.67;;;0.85;;
66112;SDS011;52893;52.870;5.822;2022-07-23T12:18:08;2.92;;;0.93;;
66112;SDS011;52893;52.870;5.822;2022-07-23T12:20:38;2.47;;;0.75;;
66112;SDS011;52893;52.870;5.822;2022-07-23T12:23:07;0.73;;;0.52;;
66112;SDS011;52893;52.870;5.822;2022-07-23T12:25:37;1.15;;;0.73;;
66112;SDS011;52893;52.870;5.822;2022-07-23T12:28:06;0.63;;;0.50;;
66112;SDS011;52893;52.870;5.822;2022-07-23T12:30:37;1.27;;;0.60;;
66112;SDS011;52893;52.870;5.822;2022-07-23T12:33:06;1.90;;;0.60;;
66112;SDS011;52893;52.870;5.822;2022-07-23T12:35:36;0.75;;;0.60;;
66112;SDS011;52893;52.870;5.822;2022-07-23T12:38:06;1.73;;;0.60;;
66112;SDS011;52893;52.870;5.822;2022-07-23T12:40:35;0.88;;;0.70;;
66112;SDS011;52893;52.870;5.822;2022-07-23T12:43:04;1.70;;;0.70;;
66112;SDS011;52893;52.870;5.822;2022-07-23T12:45:44;1.00;;;0.70;;
66112;SDS011;52893;52.870;5.822;2022-07-23T12:48:20;1.02;;;0.80;;
66112;SDS011;52893;52.870;5.822;2022-07-23T12:50:50;2.35;;;0.80;;
66112;SDS011;52893;52.870;5.822;2022-07-23T12:53:20;1.73;;;1.00;;
66112;SDS011;52893;52.870;5.822;2022-07-23T12:55:49;0.82;;;0.80;;
66112;SDS011;52893;52.870;5.822;2022-07-23T12:58:18;1.23;;;0.52;;
66112;SDS011;52893;52.870;5.822;2022-07-23T13:00:55;1.25;;;0.70;;
66112;SDS011;52893;52.870;5.822;2022-07-23T13:03:28;1.08;;;0.50;;
66112;SDS011;52893;52.870;5.822;2022-07-23T13:05:58;1.33;;;0.60;;
66112;SDS011;52893;52.870;5.822;2022-07-23T13:08:27;4.10;;;0.60;;
66112;SDS011;52893;52.870;5.822;2022-07-23T13:10:55;1.42;;;0.52;;
66112;SDS011;52893;52.870;5.822;2022-07-23T13:13:23;2.92;;;0.60;;
66112;SDS011;52893;52.870;5.822;2022-07-23T13:15:52;1.25;;;0.60;;
66112;SDS011;52893;52.870;5.822;2022-07-23T13:18:21;2.15;;;0.68;;
66112;SDS011;52893;52.870;5.822;2022-07-23T13:20:48;0.52;;;0.50;;
66112;SDS011;52893;52.870;5.822;2022-07-23T13:23:16;0.65;;;0.50;;
66112;SDS011;52893;52.870;5.822;2022-07-23T13:25:44;3.30;;;0.85;;
66112;SDS011;52893;52.870;5.822;2022-07-23T13:28:12;1.30;;;0.50;;
66112;SDS011;52893;52.870;5.822;2022-07-23T13:30:40;0.68;;;0.50;;
66112;SDS011;52893;52.870;5.822;2022-07-23T13:33:08;1.73;;;0.70;;
66112;SDS011;52893;52.870;5.822;2022-07-23T13:35:36;0.70;;;0.60;;
66112;SDS011;52893;52.870;5.822;2022-07-23T13:38:04;0.52;;;0.47;;
66112;SDS011;52893;52.870;5.822;2022-07-23T13:40:35;2.30;;;0.70;;
66112;SDS011;52893;52.870;5.822;2022-07-23T13:43:05;1.17;;;0.68;;
66112;SDS011;52893;52.870;5.822;2022-07-23T13:45:33;3.70;;;0.70;;
66112;SDS011;52893;52.870;5.822;2022-07-23T13:48:01;0.80;;;0.60;;
66112;SDS011;52893;52.870;5.822;2022-07-23T13:50:28;2.53;;;0.80;;
66112;SDS011;52893;52.870;5.822;2022-07-23T13:52:57;3.97;;;0.68;;
66112;SDS011;52893;52.870;5.822;2022-07-23T13:55:26;1.37;;;0.73;;
66112;SDS011;52893;52.870;5.822;2022-07-23T13:57:54;2.15;;;0.90;;
66112;SDS011;52893;52.870;5.822;2022-07-23T14:00:21;2.10;;;1.00;;
66112;SDS011;52893;52.870;5.822;2022-07-23T14:02:48;2.40;;;0.80;;
66112;SDS011;52893;52.870;5.822;2022-07-23T14:05:15;3.55;;;0.82;;
66112;SDS011;52893;52.870;5.822;2022-07-23T14:07:42;4.95;;;1.05;;
66112;SDS011;52893;52.870;5.822;2022-07-23T14:10:11;3.67;;;0.85;;
66112;SDS011;52893;52.870;5.822;2022-07-23T14:12:38;3.28;;;0.80;;
66112;SDS011;52893;52.870;5.822;2022-07-23T14:15:06;2.85;;;0.68;;
66112;SDS011;52893;52.870;5.822;2022-07-23T14:17:35;3.60;;;1.10;;
66112;SDS011;52893;52.870;5.822;2022-07-23T14:20:02;2.35;;;1.10;;
66112;SDS011;52893;52.870;5.822;2022-07-23T14:22:30;4.32;;;1.10;;
66112;SDS011;52893;52.870;5.822;2022-07-23T14:24:58;7.53;;;1.23;;
66112;SDS011;52893;52.870;5.822;2022-07-23T14:27:27;4.72;;;0.90;;
66112;SDS011;52893;52.870;5.822;2022-07-23T14:29:55;4.70;;;0.80;;
66112;SDS011;52893;52.870;5.822;2022-07-23T14:32:22;1.58;;;0.85;;
66112;SDS011;52893;52.870;5.822;2022-07-23T14:34:50;1.65;;;0.98;;
66112;SDS011;52893;52.870;5.822;2022-07-23T14:37:17;2.92;;;1.00;;
66112;SDS011;52893;52.870;5.822;2022-07-23T14:39:45;2.13;;;1.00;;
66112;SDS011;52893;52.870;5.822;2022-07-23T14:42:13;2.90;;;1.08;;
66112;SDS011;52893;52.870;5.822;2022-07-23T14:44:42;3.10;;;0.70;;
66112;SDS011;52893;52.870;5.822;2022-07-23T14:47:09;8.88;;;1.08;;
66112;SDS011;52893;52.870;5.822;2022-07-23T14:49:36;2.95;;;1.23;;
66112;SDS011;52893;52.870;5.822;2022-07-23T14:52:04;1.08;;;0.98;;
66112;SDS011;52893;52.870;5.822;2022-07-23T14:54:32;3.92;;;0.85;;
66112;SDS011;52893;52.870;5.822;2022-07-23T14:57:00;2.80;;;1.05;;
66112;SDS011;52893;52.870;5.822;2022-07-23T14:59:29;5.95;;;1.20;;
66112;SDS011;52893;52.870;5.822;2022-07-23T15:01:58;2.13;;;1.00;;
66112;SDS011;52893;52.870;5.822;2022-07-23T15:04:26;4.72;;;1.17;;
66112;SDS011;52893;52.870;5.822;2022-07-23T15:06:53;8.18;;;1.08;;
66112;SDS011;52893;52.870;5.822;2022-07-23T15:09:20;5.68;;;1.40;;
66112;SDS011;52893;52.870;5.822;2022-07-23T15:11:47;3.30;;;1.30;;